Time;durP1;ratioP1;P1;durP2;ratioP2;P2;SDS_P1;SDS_P2;PMS_P1;PMS_P2;Temp;Humidity;BMP_temperature;BMP_pressure;BME280_temperature;BME280_humidity;BME280_pressure;Samples;Min_cycle;Max_cycle;Signal;HPM_P1;HPM_P2
2023/01/08 00:01:15;;;;;;;3.47;2.88;;;11.60;99.90;;;;;;5017278;28;92468;-86
2023/01/08 00:03:43;;;;;;;2.92;2.70;;;11.50;99.90;;;;;;4983143;28;95720;-87
2023/01/08 00:06:14;;;;;;;3.38;3.08;;;11.60;99.90;;;;;;4982843;28;93854;-86
2023/01/08 00:08:56;;;;;;;3.20;2.90;;;11.60;99.90;;;;;;4999691;28;92408;-87
2023/01/08 00:11:23;;;;;;;4.00;3.00;;;11.60;99.90;;;;;;4998316;28;95735;-87
2023/01/08 00:13:50;;;;;;;2.92;2.72;;;11.50;99.90;;;;;;4999453;28;95684;-87
2023/01/08 00:16:18;;;;;;;4.18;3.38;;;11.60;99.90;;;;;;4982986;28;92930;-87
2023/01/08 00:18:46;;;;;;;2.83;2.63;;;11.60;99.90;;;;;;4983081;28;92498;-87
2023/01/08 00:21:13;;;;;;;2.78;2.42;;;11.60;99.90;;;;;;4982226;28;95642;-87
2023/01/08 00:23:40;;;;;;;2.95;2.70;;;11.60;99.90;;;;;;4998332;28;95501;-87
2023/01/08 00:26:12;;;;;;;3.35;3.05;;;11.60;99.90;;;;;;4982650;28;92427;-86
2023/01/08 00:28:40;;;;;;;3.30;3.00;;;11.60;99.90;;;;;;4999367;28;91785;-86
2023/01/08 00:31:09;;;;;;;3.00;2.60;;;11.60;99.90;;;;;;4999347;28;93508;-86
2023/01/08 00:33:39;;;;;;;5.90;2.72;;;11.60;99.90;;;;;;5016525;28;93121;-86
2023/01/08 00:36:15;;;;;;;2.75;2.50;;;11.70;99.90;;;;;;4998238;28;94823;-86
2023/01/08 00:38:44;;;;;;;2.90;2.70;;;11.70;99.90;;;;;;5017356;28;92342;-86
2023/01/08 00:41:13;;;;;;;3.42;3.10;;;11.60;99.90;;;;;;4998307;28;93262;-86
2023/01/08 00:43:40;;;;;;;4.13;3.22;;;11.60;99.90;;;;;;4982402;28;95981;-86
2023/01/08 00:46:07;;;;;;;3.85;3.00;;;11.60;99.90;;;;;;4999188;28;92916;-87
2023/01/08 00:48:37;;;;;;;3.53;2.97;;;11.60;99.90;;;;;;4982683;28;92576;-87
2023/01/08 00:51:07;;;;;;;2.78;2.53;;;11.60;99.90;;;;;;4983081;28;95360;-87
2023/01/08 00:53:34;;;;;;;3.97;3.13;;;11.70;99.90;;;;;;4984450;28;96082;-86
2023/01/08 00:56:04;;;;;;;3.30;3.00;;;11.60;99.90;;;;;;5000756;28;92466;-86
2023/01/08 00:58:32;;;;;;;4.00;3.10;;;11.70;99.90;;;;;;5019139;28;92437;-87
2023/01/08 01:00:59;;;;;;;2.78;2.58;;;11.70;99.90;;;;;;4998118;28;98068;-87
2023/01/08 01:03:27;;;;;;;3.83;2.78;;;11.60;99.90;;;;;;4998317;28;98279;-87
2023/01/08 01:06:04;;;;;;;3.95;2.90;;;11.60;99.90;;;;;;4966251;28;92589;-87
2023/01/08 01:08:32;;;;;;;4.07;3.17;;;11.70;99.90;;;;;;4999058;28;92475;-87
2023/01/08 01:10:59;;;;;;;3.13;2.83;;;11.60;99.90;;;;;;4998118;28;95719;-87
2023/01/08 01:13:26;;;;;;;2.83;2.63;;;11.60;99.90;;;;;;4998562;28;94765;-87
2023/01/08 01:16:00;;;;;;;3.20;2.90;;;11.60;99.90;;;;;;4981940;28;92505;-86
2023/01/08 01:18:30;;;;;;;3.40;3.10;;;11.60;99.90;;;;;;4999276;28;91724;-86
2023/01/08 01:21:00;;;;;;;3.50;3.20;;;11.50;99.90;;;;;;4981631;28;95999;-86
2023/01/08 01:23:27;;;;;;;3.22;2.92;;;11.60;99.90;;;;;;4978160;28;93028;-86
2023/01/08 01:25:59;;;;;;;3.30;2.95;;;11.50;99.90;;;;;;4978170;28;94794;-86
2023/01/08 01:28:26;;;;;;;3.38;3.08;;;11.50;99.90;;;;;;4978667;28;92525;-86
2023/01/08 01:30:56;;;;;;;3.92;3.10;;;11.50;99.90;;;;;;4995276;28;92518;-86
2023/01/08 01:33:23;;;;;;;3.58;3.28;;;11.50;99.90;;;;;;4978546;28;95544;-87
2023/01/08 01:35:59;;;;;;;3.70;3.00;;;11.50;99.90;;;;;;4978433;28;92538;-85
2023/01/08 01:38:27;;;;;;;4.05;3.13;;;11.50;99.90;;;;;;4994587;28;92485;-86
2023/01/08 01:40:54;;;;;;;3.22;2.92;;;11.40;99.90;;;;;;4994294;28;96649;-86
2023/01/08 01:43:38;;;;;;;3.40;3.10;;;11.40;99.90;;;;;;4995258;28;95517;-85
2023/01/08 01:46:36;;;;;;;3.85;2.92;;;11.40;99.90;;;;;;4978644;28;92520;-85
2023/01/08 01:49:14;;;;;;;3.00;2.65;;;11.40;99.90;;;;;;4994947;28;92494;-88
2023/01/08 01:51:47;;;;;;;2.60;2.40;;;11.40;99.90;;;;;;4994426;28;98813;-86
2023/01/08 01:54:16;;;;;;;3.55;2.20;;;11.30;99.90;;;;;;4978126;28;98163;-85
2023/01/08 01:56:45;;;;;;;3.85;2.15;;;11.30;99.90;;;;;;4995068;28;92547;-85
2023/01/08 01:59:13;;;;;;;3.90;2.08;;;11.30;99.90;;;;;;4978231;28;94828;-86
2023/01/08 02:01:41;;;;;;;6.13;2.38;;;11.30;99.90;;;;;;4978547;28;93366;-86
2023/01/08 02:04:12;;;;;;;3.20;1.52;;;11.30;99.90;;;;;;4979408;28;93144;-86
2023/01/08 02:07:00;;;;;;;5.32;1.63;;;11.30;99.90;;;;;;4994562;28;92458;-86
2023/01/08 02:09:27;;;;;;;4.20;1.45;;;11.30;99.90;;;;;;4980504;28;91812;-86
2023/01/08 02:12:16;;;;;;;5.35;1.20;;;11.20;99.90;;;;;;4995989;28;92510;-86
2023/01/08 02:15:04;;;;;;;4.45;1.25;;;11.30;99.90;;;;;;4996260;28;92916;-86
2023/01/08 02:17:34;;;;;;;3.78;1.38;;;11.20;99.90;;;;;;4995289;28;94902;-86
2023/01/08 02:20:13;;;;;;;6.47;1.50;;;11.10;99.90;;;;;;4995160;28;92997;-86
2023/01/08 02:22:45;;;;;;;3.38;1.30;;;11.10;99.90;;;;;;4993644;28;95489;-86
2023/01/08 02:25:30;;;;;;;5.13;1.00;;;11.10;99.90;;;;;;4995499;28;92971;-86
2023/01/08 02:28:00;;;;;;;6.22;1.52;;;11.00;99.90;;;;;;4977488;28;92462;-87
2023/01/08 02:30:28;;;;;;;4.60;1.38;;;10.90;99.90;;;;;;4994046;28;92553;-87
2023/01/08 02:32:55;;;;;;;6.20;1.30;;;10.90;99.90;;;;;;4993594;28;95891;-87
2023/01/08 02:35:55;;;;;;;8.13;1.88;;;10.80;99.90;;;;;;4994409;28;92913;-87
2023/01/08 02:38:23;;;;;;;5.03;1.45;;;10.70;99.90;;;;;;4983109;28;93363;-87
2023/01/08 02:40:59;;;;;;;4.82;1.15;;;10.60;99.90;;;;;;4993734;28;92514;-87
2023/01/08 02:43:50;;;;;;;6.30;1.95;;;10.60;99.90;;;;;;4992777;28;95617;-88
2023/01/08 02:46:22;;;;;;;4.85;1.70;;;10.50;99.90;;;;;;4994041;28;95462;-87
2023/01/08 02:49:10;;;;;;;6.93;1.50;;;10.40;99.90;;;;;;4993800;28;92399;-86
2023/01/08 02:51:44;;;;;;;4.57;1.30;;;10.40;99.90;;;;;;4977281;28;92621;-87
2023/01/08 02:54:14;;;;;;;;;;;10.30;99.90;;;;;;4994624;28;93246;-86
2023/01/08 02:56:45;;;;;;;5.38;1.15;;;10.20;99.90;;;;;;4995095;28;92514;-86
2023/01/08 02:59:14;;;;;;;8.35;1.67;;;10.10;99.90;;;;;;4995102;28;92466;-88
2023/01/08 03:01:42;;;;;;;7.90;1.52;;;10.20;99.90;;;;;;4993644;28;91726;-87
2023/01/08 03:04:16;;;;;;;8.48;1.52;;;10.20;99.90;;;;;;4995843;28;93405;-87
2023/01/08 03:06:44;;;;;;;6.50;1.58;;;10.20;99.90;;;;;;4997150;28;94022;-87
2023/01/08 03:09:11;;;;;;;6.32;1.58;;;10.20;99.90;;;;;;4996172;28;94906;-88
2023/01/08 03:11:46;;;;;;;5.78;1.73;;;10.10;99.90;;;;;;4997378;28;92533;-87
2023/01/08 03:14:44;;;;;;;4.68;1.42;;;10.20;99.90;;;;;;4996800;28;95616;-87
2023/01/08 03:17:30;;;;;;;5.75;1.65;;;10.20;99.90;;;;;;4997102;28;92916;-87
2023/01/08 03:20:19;;;;;;;6.80;1.50;;;10.10;99.90;;;;;;4996996;28;92367;-87
2023/01/08 03:22:50;;;;;;;4.38;2.10;;;10.20;99.90;;;;;;4963623;28;92673;-87
2023/01/08 03:25:20;;;;;;;4.97;1.20;;;10.10;99.90;;;;;;4997233;28;94226;-87
2023/01/08 03:27:53;;;;;;;4.95;1.23;;;10.00;99.90;;;;;;4997418;28;93240;-87
2023/01/08 03:30:22;;;;;;;6.68;1.38;;;10.10;99.90;;;;;;5014135;28;92382;-87
2023/01/08 03:32:51;;;;;;;6.07;1.60;;;10.10;99.90;;;;;;4980816;28;93295;-86
2023/01/08 03:35:20;;;;;;;4.55;1.80;;;10.10;99.90;;;;;;4995605;28;96085;-86
2023/01/08 03:37:55;;;;;;;5.07;1.40;;;10.10;99.90;;;;;;4996812;28;94235;-86
2023/01/08 03:40:34;;;;;;;4.50;1.70;;;10.10;99.90;;;;;;4996602;28;92637;-87
2023/01/08 03:43:01;;;;;;;4.05;1.75;;;10.10;99.90;;;;;;4979705;28;92452;-87
2023/01/08 03:45:30;;;;;;;2.53;1.70;;;10.10;99.90;;;;;;4979557;28;95782;-87
2023/01/08 03:47:59;;;;;;;5.07;2.40;;;10.10;99.90;;;;;;4996255;28;94582;-87
2023/01/08 03:50:29;;;;;;;4.50;2.13;;;10.10;99.90;;;;;;4997857;28;92666;-87
2023/01/08 03:52:56;;;;;;;5.75;2.67;;;10.10;99.90;;;;;;4996925;28;92645;-87
2023/01/08 03:55:26;;;;;;;3.03;2.33;;;10.10;99.90;;;;;;4980216;28;95915;-86
2023/01/08 03:57:53;;;;;;;5.45;2.75;;;10.10;99.90;;;;;;4996288;28;95992;-86
2023/01/08 04:00:20;;;;;;;3.92;2.45;;;10.10;99.90;;;;;;4996185;28;94734;-86
2023/01/08 04:02:47;;;;;;;4.70;2.53;;;10.20;99.90;;;;;;4980016;28;92486;-87
2023/01/08 04:05:14;;;;;;;4.15;2.70;;;10.20;99.90;;;;;;4979386;28;96092;-86
2023/01/08 04:07:41;;;;;;;4.60;2.90;;;10.20;99.90;;;;;;4996206;28;93021;-86
2023/01/08 04:10:08;;;;;;;5.32;3.10;;;10.20;99.90;;;;;;4997625;28;92377;-86
2023/01/08 04:12:35;;;;;;;3.28;2.80;;;10.30;99.90;;;;;;4995806;28;92549;-87
2023/01/08 04:15:03;;;;;;;3.85;3.00;;;10.30;99.90;;;;;;4994551;28;94244;-87
2023/01/08 04:17:30;;;;;;;3.75;3.03;;;10.40;99.90;;;;;;4996275;28;93065;-87
2023/01/08 04:19:57;;;;;;;3.40;3.10;;;10.40;99.90;;;;;;4979549;28;92436;-87
2023/01/08 04:22:24;;;;;;;4.63;3.50;;;10.50;99.90;;;;;;4996422;28;92474;-86
2023/01/08 04:24:51;;;;;;;5.97;3.30;;;10.50;99.90;;;;;;4981582;28;95649;-86
2023/01/08 04:27:18;;;;;;;3.38;3.08;;;10.60;99.90;;;;;;5016864;28;95434;-87
2023/01/08 04:29:45;;;;;;;5.18;3.20;;;10.60;99.90;;;;;;4982921;28;92479;-86
2023/01/08 04:32:12;;;;;;;5.03;3.10;;;10.60;99.90;;;;;;4982460;28;92480;-86
2023/01/08 04:34:42;;;;;;;6.45;3.58;;;10.60;99.90;;;;;;4999324;28;93121;-86
2023/01/08 04:37:09;;;;;;;7.18;2.80;;;10.60;99.90;;;;;;4998953;28;95514;-86
2023/01/08 04:39:36;;;;;;;3.90;3.15;;;10.60;99.90;;;;;;4998910;28;92448;-86
2023/01/08 04:42:03;;;;;;;5.80;3.17;;;10.60;99.90;;;;;;4999743;28;92195;-86
2023/01/08 04:44:30;;;;;;;4.10;2.97;;;10.70;99.90;;;;;;4999022;28;93615;-86
2023/01/08 04:46:57;;;;;;;2.72;2.53;;;10.70;99.90;;;;;;4998957;28;93128;-86
2023/01/08 04:49:24;;;;;;;3.88;2.40;;;10.70;99.90;;;;;;4981309;28;94883;-86
2023/01/08 04:51:51;;;;;;;5.40;2.58;;;10.60;99.90;;;;;;4999152;28;92497;-86
2023/01/08 04:54:18;;;;;;;3.42;2.63;;;10.60;99.90;;;;;;4982560;28;93474;-86
2023/01/08 04:56:45;;;;;;;4.97;2.78;;;10.60;99.90;;;;;;5016895;28;95003;-86
2023/01/08 04:59:12;;;;;;;5.47;3.00;;;10.60;99.90;;;;;;5016394;28;92472;-86
2023/01/08 05:01:39;;;;;;;5.65;2.85;;;10.60;99.90;;;;;;4998756;28;92560;-86
2023/01/08 05:04:06;;;;;;;5.32;3.00;;;10.60;99.90;;;;;;4981689;28;95942;-86
2023/01/08 05:06:33;;;;;;;5.13;3.17;;;10.60;99.90;;;;;;4982758;28;93003;-86
2023/01/08 05:09:00;;;;;;;3.72;2.75;;;10.60;99.90;;;;;;4998753;28;92512;-86
2023/01/08 05:11:27;;;;;;;3.47;2.40;;;10.50;99.90;;;;;;4965706;28;92563;-86
2023/01/08 05:13:55;;;;;;;4.55;2.28;;;10.60;99.90;;;;;;4980525;28;98347;-86
2023/01/08 05:16:23;;;;;;;2.58;1.88;;;10.50;99.90;;;;;;4997664;28;98125;-86
2023/01/08 05:18:50;;;;;;;3.00;1.75;;;10.60;99.90;;;;;;4998318;28;92458;-86
2023/01/08 05:21:17;;;;;;;2.88;2.30;;;10.60;99.90;;;;;;4982108;28;92526;-86
2023/01/08 05:23:46;;;;;;;2.92;2.03;;;10.50;99.90;;;;;;4997823;28;93325;-86
2023/01/08 05:26:14;;;;;;;2.35;1.92;;;10.50;99.90;;;;;;4997568;28;95516;-86
2023/01/08 05:28:41;;;;;;;4.63;2.50;;;10.50;99.90;;;;;;4981827;28;92678;-86
2023/01/08 05:31:08;;;;;;;3.30;1.88;;;10.50;99.90;;;;;;4982413;28;91765;-86
2023/01/08 05:33:35;;;;;;;2.15;1.95;;;10.50;99.90;;;;;;4981285;28;96288;-86
2023/01/08 05:36:10;;;;;;;2.33;1.80;;;10.50;99.90;;;;;;5015746;28;93136;-86
2023/01/08 05:38:38;;;;;;;3.92;2.58;;;10.50;99.90;;;;;;4997188;28;94811;-86
2023/01/08 05:41:06;;;;;;;2.83;2.08;;;10.40;99.90;;;;;;4998458;28;92620;-86
2023/01/08 05:43:33;;;;;;;3.10;1.95;;;10.40;99.90;;;;;;4981144;28;95937;-86
2023/01/08 05:46:01;;;;;;;7.70;2.53;;;10.40;99.90;;;;;;4998314;28;93094;-86
2023/01/08 05:48:30;;;;;;;2.58;2.22;;;10.40;99.90;;;;;;5015772;28;92377;-86
2023/01/08 05:50:57;;;;;;;5.63;2.40;;;10.40;99.90;;;;;;4998173;28;92554;-86
2023/01/08 05:53:24;;;;;;;3.92;2.75;;;10.30;99.90;;;;;;4981482;28;93404;-87
2023/01/08 05:55:56;;;;;;;4.07;2.45;;;10.30;99.90;;;;;;4998475;28;91780;-86
2023/01/08 05:58:24;;;;;;;5.70;3.15;;;10.30;99.90;;;;;;4982448;28;92486;-86
2023/01/08 06:00:52;;;;;;;4.15;2.83;;;10.20;99.90;;;;;;4997809;28;92458;-87
2023/01/08 06:03:20;;;;;;;5.20;2.90;;;10.20;99.90;;;;;;4996288;28;95934;-86
2023/01/08 06:05:47;;;;;;;5.22;3.33;;;10.10;99.90;;;;;;5015550;28;96268;-86
2023/01/08 06:08:15;;;;;;;4.30;3.13;;;10.10;99.90;;;;;;4982190;28;92445;-87
2023/01/08 06:10:42;;;;;;;4.60;2.80;;;10.10;99.90;;;;;;4998195;28;92526;-86
2023/01/08 06:13:09;;;;;;;5.78;3.13;;;10.10;99.90;;;;;;5016123;28;94023;-86
2023/01/08 06:15:38;;;;;;;7.07;2.88;;;10.10;99.90;;;;;;4997731;28;92975;-86
2023/01/08 06:18:05;;;;;;;4.68;2.80;;;10.10;99.90;;;;;;4997826;28;92700;-87
2023/01/08 06:20:32;;;;;;;4.53;2.25;;;10.10;99.90;;;;;;4998019;28;92076;-86
2023/01/08 06:22:59;;;;;;;4.82;2.10;;;10.10;99.90;;;;;;4996955;28;93191;-87
2023/01/08 06:25:27;;;;;;;5.53;2.10;;;10.10;99.90;;;;;;4964387;28;95666;-86
2023/01/08 06:27:54;;;;;;;3.33;2.08;;;10.10;99.90;;;;;;4996822;28;95294;-87
2023/01/08 06:30:21;;;;;;;5.43;2.35;;;10.20;99.90;;;;;;4981133;28;92520;-87
2023/01/08 06:32:48;;;;;;;4.22;1.83;;;10.20;99.90;;;;;;5015286;28;93331;-86
2023/01/08 06:35:15;;;;;;;6.10;2.60;;;10.10;99.90;;;;;;4997762;28;93454;-86
2023/01/08 06:37:42;;;;;;;3.35;1.50;;;10.20;99.90;;;;;;4997672;28;93073;-86
2023/01/08 06:40:09;;;;;;;2.65;1.52;;;10.10;99.90;;;;;;4984496;28;92528;-87
2023/01/08 06:42:36;;;;;;;2.65;1.65;;;10.10;99.90;;;;;;4983718;28;95831;-87
2023/01/08 06:45:05;;;;;;;3.75;1.35;;;10.10;99.90;;;;;;4984948;28;93034;-87
2023/01/08 06:47:32;;;;;;;2.80;1.92;;;10.10;99.90;;;;;;5000851;28;92533;-86
2023/01/08 06:49:59;;;;;;;4.75;1.95;;;10.10;99.90;;;;;;4984199;28;92685;-86
2023/01/08 06:52:26;;;;;;;5.57;1.42;;;10.10;99.90;;;;;;4982510;28;98339;-86
2023/01/08 06:54:53;;;;;;;5.25;1.75;;;10.10;99.90;;;;;;5000612;28;98134;-86
2023/01/08 06:57:20;;;;;;;4.63;1.63;;;10.10;99.90;;;;;;5000389;28;92498;-86
2023/01/08 06:59:47;;;;;;;4.80;1.40;;;10.10;99.90;;;;;;5000736;28;92479;-86
2023/01/08 07:02:16;;;;;;;5.25;1.58;;;10.10;99.90;;;;;;5000252;28;95258;-85
2023/01/08 07:04:43;;;;;;;3.00;1.40;;;10.10;99.90;;;;;;5000569;28;95735;-86
2023/01/08 07:07:14;;;;;;;2.90;1.48;;;10.10;99.90;;;;;;5000945;28;92354;-85
2023/01/08 07:09:41;;;;;;;4.55;1.90;;;10.20;99.90;;;;;;5018966;28;91723;-85
2023/01/08 07:12:13;;;;;;;4.25;1.73;;;10.20;99.90;;;;;;5000467;28;93195;-86
2023/01/08 07:14:40;;;;;;;3.33;1.70;;;10.20;99.90;;;;;;4999897;28;95782;-85
2023/01/08 07:17:07;;;;;;;5.78;1.58;;;10.10;99.90;;;;;;4982899;28;94856;-85
2023/01/08 07:19:34;;;;;;;4.05;1.73;;;10.10;99.90;;;;;;5000404;28;92412;-85
2023/01/08 07:22:01;;;;;;;5.80;1.42;;;10.10;99.90;;;;;;5018413;28;92799;-86
2023/01/08 07:24:29;;;;;;;3.25;1.42;;;10.10;99.90;;;;;;4980194;28;92574;-86
2023/01/08 07:26:56;;;;;;;4.30;1.45;;;10.10;99.90;;;;;;4980523;28;92397;-87
2023/01/08 07:29:24;;;;;;;3.85;1.20;;;10.10;99.90;;;;;;4998441;28;92464;-86
2023/01/08 07:31:51;;;;;;;4.30;1.67;;;10.10;99.90;;;;;;4997034;28;94286;-87
2023/01/08 07:34:18;;;;;;;6.30;1.55;;;10.10;99.90;;;;;;4981233;28;95327;-87
2023/01/08 07:36:45;;;;;;;4.15;1.35;;;10.10;99.90;;;;;;4996506;28;92540;-87
2023/01/08 07:39:12;;;;;;;4.15;1.40;;;10.10;99.90;;;;;;4980198;28;92482;-87
2023/01/08 07:41:39;;;;;;;4.03;1.35;;;10.00;99.90;;;;;;4995087;28;95708;-87
2023/01/08 07:44:06;;;;;;;7.50;1.67;;;10.00;99.90;;;;;;4996324;28;98062;-87
2023/01/08 07:46:33;;;;;;;3.60;1.67;;;10.00;99.90;;;;;;4996368;28;92553;-88
2023/01/08 07:49:00;;;;;;;5.88;1.70;;;10.00;99.90;;;;;;4979834;28;92551;-87
2023/01/08 07:51:28;;;;;;;6.30;1.80;;;9.90;99.90;;;;;;4979866;28;95698;-88
2023/01/08 07:53:55;;;;;;;5.88;1.77;;;9.90;99.90;;;;;;4996102;28;94693;-88
2023/01/08 07:56:23;;;;;;;3.63;1.67;;;9.90;99.90;;;;;;4980080;28;92542;-87
2023/01/08 07:58:50;;;;;;;5.63;2.40;;;9.90;99.90;;;;;;4996501;28;91730;-87
2023/01/08 08:01:18;;;;;;;7.47;2.13;;;9.80;99.90;;;;;;4996325;28;93494;-87
2023/01/08 08:03:45;;;;;;;4.05;2.50;;;9.80;99.90;;;;;;4996118;28;92779;-88
2023/01/08 08:06:12;;;;;;;4.22;3.03;;;9.80;99.90;;;;;;4978752;28;95000;-87
2023/01/08 08:08:39;;;;;;;7.20;2.97;;;9.70;99.90;;;;;;4979559;28;92528;-88
2023/01/08 08:11:08;;;;;;;7.30;2.60;;;9.70;99.90;;;;;;4979701;28;96293;-88
2023/01/08 08:13:36;;;;;;;4.40;2.80;;;9.70;99.90;;;;;;4997420;28;93000;-88
2023/01/08 08:16:04;;;;;;;11.52;5.22;;;9.60;99.90;;;;;;4996275;28;93141;-88
2023/01/08 08:18:31;;;;;;;6.63;2.05;;;9.60;99.90;;;;;;4995868;28;92532;-88
2023/01/08 08:20:58;;;;;;;4.05;2.10;;;9.50;99.90;;;;;;4979378;28;93220;-88
2023/01/08 08:23:25;;;;;;;4.65;2.30;;;9.50;99.90;;;;;;4979712;28;92959;-88
2023/01/08 08:25:52;;;;;;;7.88;2.50;;;9.40;99.90;;;;;;4996136;28;92524;-88
2023/01/08 08:28:19;;;;;;;6.88;3.47;;;9.40;99.90;;;;;;4996267;28;92585;-88
2023/01/08 08:30:46;;;;;;;4.97;1.90;;;9.30;99.90;;;;;;4977825;28;98440;-88
2023/01/08 08:33:13;;;;;;;3.35;2.60;;;9.30;99.90;;;;;;4979401;28;97764;-88
2023/01/08 08:35:46;;;;;;;5.82;2.33;;;9.20;99.90;;;;;;4979303;28;92516;-86
2023/01/08 08:38:13;;;;;;;5.97;3.50;;;9.20;99.90;;;;;;4979349;28;92954;-86
2023/01/08 08:40:41;;;;;;;4.38;2.60;;;9.20;99.90;;;;;;4979480;28;93650;-87
2023/01/08 08:43:09;;;;;;;8.60;6.07;;;9.20;99.90;;;;;;4997096;28;92798;-86
2023/01/08 08:45:36;;;;;;;13.80;6.47;;;9.20;99.90;;;;;;4995850;28;92532;-86
2023/01/08 08:48:07;;;;;;;8.15;3.78;;;9.20;99.90;;;;;;4996657;28;91651;-86
2023/01/08 08:50:34;;;;;;;5.63;2.67;;;9.30;99.90;;;;;;4995680;28;95953;-86
2023/01/08 08:53:03;;;;;;;5.97;2.80;;;9.30;99.90;;;;;;4979184;28;95522;-87
2023/01/08 08:55:31;;;;;;;6.30;4.20;;;9.30;99.90;;;;;;4978503;28;96083;-86
2023/01/08 08:58:10;;;;;;;4.75;2.60;;;9.30;99.90;;;;;;4995495;28;92621;-87
2023/01/08 09:00:38;;;;;;;38.72;22.95;;;9.40;99.90;;;;;;4994471;28;93970;-88
2023/01/08 09:03:06;;;;;;;28.13;14.68;;;9.40;99.90;;;;;;4995774;28;93027;-87
2023/01/08 09:05:36;;;;;;;31.13;14.27;;;9.40;99.90;;;;;;4995993;28;95302;-87
2023/01/08 09:08:03;;;;;;;5.88;3.75;;;9.50;99.90;;;;;;4978465;28;92563;-87
2023/01/08 09:10:30;;;;;;;5.88;2.00;;;9.40;99.90;;;;;;4995096;28;97223;-88
2023/01/08 09:12:57;;;;;;;5.03;2.35;;;9.50;99.90;;;;;;4978716;28;95819;-88
2023/01/08 09:15:24;;;;;;;8.48;3.33;;;9.50;99.90;;;;;;4996542;28;92454;-87
2023/01/08 09:17:56;;;;;;;12.48;9.32;;;9.60;99.90;;;;;;4995247;28;92564;-87
2023/01/08 09:20:25;;;;;;;6.47;2.90;;;9.60;99.90;;;;;;4994124;28;95584;-88
2023/01/08 09:22:52;;;;;;;4.53;3.05;;;9.60;99.90;;;;;;4997974;28;96769;-87
2023/01/08 09:25:19;;;;;;;5.03;3.67;;;9.60;99.90;;;;;;4982472;28;92572;-87
2023/01/08 09:27:46;;;;;;;10.98;9.15;;;9.70;99.90;;;;;;4998636;28;92470;-88
2023/01/08 09:30:13;;;;;;;6.07;1.85;;;9.70;99.90;;;;;;4981898;28;95831;-87
2023/01/08 09:32:40;;;;;;;5.03;2.10;;;9.70;99.90;;;;;;4998130;28;95587;-88
2023/01/08 09:35:08;;;;;;;4.43;1.73;;;9.70;99.90;;;;;;4998972;28;92497;-87
2023/01/08 09:37:35;;;;;;;4.90;1.90;;;9.80;99.90;;;;;;4982020;28;91778;-87
2023/01/08 09:40:02;;;;;;;3.92;1.40;;;9.80;99.90;;;;;;4981217;28;96630;-88
2023/01/08 09:42:30;;;;;;;3.60;2.15;;;9.80;99.90;;;;;;4982267;28;92907;-87
2023/01/08 09:45:00;;;;;;;2.33;1.48;;;9.90;99.90;;;;;;5014971;28;95877;-88
2023/01/08 09:47:37;;;;;;;3.42;1.50;;;9.90;99.90;;;;;;4998076;28;92422;-87
2023/01/08 09:50:10;;;;;;;6.55;2.10;;;9.90;99.90;;;;;;4997567;28;95742;-88
2023/01/08 09:52:38;;;;;;;3.80;1.70;;;10.00;99.90;;;;;;4997476;28;95652;-88
2023/01/08 09:55:13;;;;;;;4.88;1.80;;;10.00;99.90;;;;;;4998624;28;92433;-87
2023/01/08 09:57:40;;;;;;;4.85;1.50;;;10.00;99.90;;;;;;5016380;28;92558;-87
2023/01/08 10:00:23;;;;;;;5.18;1.73;;;10.00;99.90;;;;;;4998448;28;93587;-87
2023/01/08 10:02:52;;;;;;;4.40;1.65;;;10.10;99.90;;;;;;4998034;28;95688;-88
2023/01/08 10:05:20;;;;;;;3.83;1.40;;;10.10;99.90;;;;;;4998321;28;92932;-87
2023/01/08 10:07:47;;;;;;;6.60;1.50;;;10.10;99.90;;;;;;4981489;28;92476;-87
2023/01/08 10:10:35;;;;;;;5.03;1.60;;;10.20;99.90;;;;;;4964236;28;98442;-86
2023/01/08 10:13:02;;;;;;;5.57;1.50;;;10.30;99.90;;;;;;4983315;28;97977;-87
2023/01/08 10:15:29;;;;;;;3.67;1.27;;;10.30;99.90;;;;;;4985629;28;92527;-86
2023/01/08 10:17:56;;;;;;;3.72;1.48;;;10.30;99.90;;;;;;4984809;28;92914;-87
2023/01/08 10:20:24;;;;;;;6.28;2.03;;;10.30;99.90;;;;;;5000612;28;95942;-87
2023/01/08 10:22:55;;;;;;;5.20;1.60;;;10.30;99.90;;;;;;5000326;28;94201;-87
2023/01/08 10:25:24;;;;;;;31.02;16.77;;;10.30;99.90;;;;;;5000958;28;93306;-87
2023/01/08 10:27:57;;;;;;;12.32;6.60;;;10.40;99.90;;;;;;5000483;28;91705;-87
2023/01/08 10:30:36;;;;;;;5.40;1.90;;;10.40;99.90;;;;;;5018796;28;94581;-87
2023/01/08 10:33:13;;;;;;;4.82;1.80;;;10.50;99.90;;;;;;5018921;28;92941;-87
2023/01/08 10:35:42;;;;;;;7.97;1.70;;;10.50;99.90;;;;;;4999495;28;94860;-87
2023/01/08 10:38:49;;;;;;;10.35;2.17;;;10.50;99.90;;;;;;5000572;28;92542;-86
2023/01/08 10:41:17;;;;;;;5.43;2.25;;;10.60;99.90;;;;;;4937151;28;95746;-87
2023/01/08 10:43:48;;;;;;;5.25;1.67;;;10.50;99.90;;;;;;4988044;28;92982;-86
2023/01/08 10:46:26;;;;;;;6.03;1.50;;;10.60;99.90;;;;;;5000801;28;93058;-87
2023/01/08 10:48:59;;;;;;;6.78;2.15;;;10.60;99.90;;;;;;4984189;28;92508;-87
2023/01/08 10:51:28;;;;;;;7.30;1.75;;;10.70;99.90;;;;;;4984075;28;95773;-87
2023/01/08 10:53:59;;;;;;;7.22;1.63;;;10.70;99.90;;;;;;5018478;28;96131;-87
2023/01/08 10:56:29;;;;;;;5.72;1.50;;;10.70;99.90;;;;;;5018787;28;93424;-87
2023/01/08 10:58:56;;;;;;;6.30;1.98;;;10.70;99.90;;;;;;4983732;28;92602;-87
2023/01/08 11:01:25;;;;;;;5.53;1.92;;;10.70;99.90;;;;;;4982571;28;98191;-88
2023/01/08 11:03:56;;;;;;;5.95;2.15;;;10.80;99.90;;;;;;4999206;28;98132;-87
2023/01/08 11:06:29;;;;;;;7.93;2.20;;;10.80;99.90;;;;;;5018788;28;92612;-87
2023/01/08 11:09:01;;;;;;;6.25;1.40;;;10.90;99.90;;;;;;5000251;28;92562;-87
2023/01/08 11:11:34;;;;;;;6.63;1.67;;;10.90;99.90;;;;;;5000718;28;93326;-87
2023/01/08 11:14:22;;;;;;;4.93;1.85;;;10.90;99.90;;;;;;5017720;28;93268;-87
2023/01/08 11:16:49;;;;;;;11.15;2.25;;;11.00;99.90;;;;;;5019181;28;93726;-88
2023/01/08 11:19:22;;;;;;;5.30;2.03;;;11.00;99.90;;;;;;5018603;28;91712;-87
2023/01/08 11:22:00;;;;;;;7.57;1.55;;;11.00;99.90;;;;;;5018518;28;93349;-87
2023/01/08 11:24:33;;;;;;;6.50;2.10;;;11.10;99.90;;;;;;4999496;28;93111;-87
2023/01/08 11:27:15;;;;;;;24.92;14.43;;;11.10;99.90;;;;;;4982780;28;94881;-87
2023/01/08 11:29:44;;;;;;;7.45;1.83;;;11.10;99.90;;;;;;5000073;28;92521;-87
2023/01/08 11:32:14;;;;;;;8.75;2.55;;;11.10;99.90;;;;;;5000504;28;93602;-87
2023/01/08 11:35:14;;;;;;;7.53;2.20;;;11.10;99.90;;;;;;5000353;28;94363;-87
2023/01/08 11:37:58;;;;;;;7.45;1.88;;;11.20;99.90;;;;;;5002694;28;92538;-86
2023/01/08 11:40:31;;;;;;;4.90;2.08;;;11.10;99.90;;;;;;5018066;28;92428;-87
2023/01/08 11:43:22;;;;;;;7.07;2.15;;;11.20;99.90;;;;;;4999317;28;95934;-87
2023/01/08 11:45:56;;;;;;;12.32;2.20;;;11.20;99.90;;;;;;5000274;28;96014;-87
2023/01/08 11:48:38;;;;;;;5.65;1.90;;;11.20;99.90;;;;;;5018190;28;92456;-86
2023/01/08 11:51:33;;;;;;;8.48;1.63;;;11.20;99.90;;;;;;5017753;28;92834;-87
2023/01/08 11:54:18;;;;;;;6.10;1.77;;;11.20;99.90;;;;;;4998145;28;98313;-87
2023/01/08 11:57:12;;;;;;;5.95;1.73;;;11.30;99.90;;;;;;4999543;28;97715;-87
2023/01/08 12:00:21;;;;;;;5.78;1.25;;;11.30;99.90;;;;;;4999539;28;92464;-87
2023/01/08 12:03:02;;;;;;;10.07;1.77;;;11.30;99.90;;;;;;4936031;28;92439;-87
2023/01/08 12:06:00;;;;;;;6.43;1.60;;;11.30;99.90;;;;;;4995079;28;93185;-87
2023/01/08 12:08:39;;;;;;;5.47;2.08;;;11.30;99.90;;;;;;5017247;28;94388;-87
2023/01/08 12:11:12;;;;;;;7.40;1.83;;;11.30;99.90;;;;;;4999441;28;92530;-87
2023/01/08 12:13:51;;;;;;;6.07;1.90;;;11.30;99.90;;;;;;4999934;28;91758;-86
2023/01/08 12:16:25;;;;;;;5.68;1.60;;;11.30;99.90;;;;;;5017393;28;93728;-87
2023/01/08 12:18:58;;;;;;;8.63;1.80;;;11.40;99.90;;;;;;4999248;28;95504;-87
2023/01/08 12:21:29;;;;;;;10.50;2.25;;;11.50;99.90;;;;;;4998039;28;95007;-87
2023/01/08 12:24:22;;;;;;;7.53;2.00;;;11.60;99.90;;;;;;4998600;28;92583;-87
2023/01/08 12:27:14;;;;;;;9.60;2.20;;;11.70;99.90;;;;;;4998628;28;95941;-87
2023/01/08 12:29:56;;;;;;;8.63;1.77;;;11.70;99.90;;;;;;4998905;28;95262;-88
2023/01/08 12:32:29;;;;;;;9.93;1.88;;;11.80;99.90;;;;;;4999090;28;93216;-88
2023/01/08 12:35:10;;;;;;;8.20;1.80;;;11.80;99.90;;;;;;4998910;28;92399;-87
2023/01/08 12:38:00;;;;;;;10.57;2.38;;;11.90;99.90;;;;;;4998497;28;95651;-87
2023/01/08 12:40:37;;;;;;;11.52;2.40;;;12.10;99.90;;;;;;4982890;28;95009;-87
2023/01/08 12:43:27;;;;;;;5.88;1.88;;;12.10;99.90;;;;;;4982601;28;92504;-87
2023/01/08 12:45:58;;;;;;;8.80;2.45;;;12.10;99.90;;;;;;4999472;28;92469;-87
2023/01/08 12:48:32;;;;;;;5.90;1.77;;;12.20;99.90;;;;;;4997602;28;98815;-87
2023/01/08 12:51:01;;;;;;;7.55;2.00;;;12.10;99.90;;;;;;5015445;28;98170;-87
2023/01/08 12:53:48;;;;;;;8.25;2.05;;;12.10;99.90;;;;;;4999151;28;92460;-87
2023/01/08 12:56:44;;;;;;;7.15;1.95;;;12.10;99.90;;;;;;4999475;28;92461;-87
2023/01/08 12:59:22;;;;;;;9.57;2.20;;;12.00;99.90;;;;;;4999382;28;93248;-87
2023/01/08 13:02:12;;;;;;;7.43;1.77;;;11.90;99.90;;;;;;4998392;28;95708;-87
2023/01/08 13:04:45;;;;;;;9.55;2.22;;;11.90;99.90;;;;;;4983298;28;92809;-87
2023/01/08 13:07:22;;;;;;;6.78;2.08;;;11.80;99.90;;;;;;5017195;28;91646;-87
2023/01/08 13:10:05;;;;;;;5.43;2.00;;;11.90;99.90;;;;;;5016421;28;93338;-87